• Join FlightAware (Why Join?)
  • Login
  • US Flag 
Trick or treat! (Boo!!) 
10:23AM EDT


 

Airport Tracker/Info


-or-


 

Live Flight TrackerFlight Track Log ✈ AWE997 ✈ 15-May-2013 ✈ KORD - KPHL

Flight Track Log - Related Links

Times and Time Zones

All times are in EDT time to prevent confusion due to time zone crossing. See the AWE997 flight status page for this flight to view local times or setup timezone preferences in your user account.

Time Position Orientation Groundspeed Altitude Reporting Facility
EDT Latitude Longitude Course Direction KTS MPH feet Rate Location/Type
10:49AM 41.9167 -87.8833 90° East 189 217 2,400  Level Chicago TRACON
10:50AM 41.8833 -87.8333 132° Southeast 234 269 4,200 1,680 Climbing Chicago TRACON
10:51AM 41.9597 -87.4734 97° East  Level FlightAware Approximate
10:51AM 41.8333 -87.7500 129° Southeast 302 348 5,900  Level Chicago TRACON
10:52AM 41.9476 -87.3319 95° East  Level FlightAware Approximate
10:53AM 41.9374 -87.1902 95° East  Level FlightAware Approximate
10:53AM 41.8453 -87.5481 85° East 325 374 10,700  Level Chicago Center
10:54AM 41.9333 -87.0482 90° East  Level FlightAware Approximate
10:54AM 41.8703 -87.4275 74° East 333 383 13,200  Level Chicago Center
10:55AM 41.9022 -87.2769 74° East 350 403 15,500 1,920 Climbing Chicago Center
10:56AM 41.9322 -87.1400 74° East 376 433 17,200 1,440 Climbing Chicago Center
10:57AM 41.9494 -86.9850 81° East 412 474 18,500 1,080 Climbing Chicago Center
10:58AM 41.9511 -86.8117 89° East 450 518 19,500 1,260 Climbing Chicago Center
10:59AM 41.9522 -86.6319 89° East 475 547 21,200 1,500 Climbing Chicago Center
11:00AM 41.9539 -86.4469 89° East 490 564 22,600 1,080 Climbing Chicago Center
11:01AM 41.9558 -86.2211 89° East 501 577 23,500 900 Climbing Chicago Center
11:02AM 41.9386 -86.0281 97° East 519 597 24,500 1,140 Climbing Chicago Center
11:03AM 41.9206 -85.8356 97° East 519 597 25,900 1,320 Climbing Chicago Center
11:04AM 41.9028 -85.6425 97° East 519 597 27,300 1,260 Climbing Chicago Center
11:05AM 41.8839 -85.4494 97° East 516 594 28,600 1,260 Climbing Chicago Center
11:06AM 41.8653 -85.2569 97° East 514 592 30,000 1,320 Climbing Chicago Center
11:07AM 41.8461 -85.0678 98° East 508 585 31,400 1,260 Climbing Chicago Center
11:07AM 41.8383 -84.9761 96° East 525 604 31,800 1,320 Climbing Cleveland Center
11:08AM 41.8181 -84.7936 98° East 513 590 33,200 1,140 Climbing Cleveland Center
11:09AM 41.8017 -84.6114 97° East 508 585 34,100 900 Climbing Cleveland Center
11:10AM 41.7808 -84.4233 98° East 508 585 35,000 420 Climbing Cleveland Center
11:11AM 41.7742 -84.2447 93° East 503 579 35,000  Level Cleveland Center
11:12AM 41.7739 -84.0553 90° East 498 573 35,000 300 Level Cleveland Center
11:13AM 41.7711 -83.8714 91° East 498 573 35,700 660 Climbing Cleveland Center
11:14AM 41.7700 -83.6792 90° East 503 579 36,400 600 Climbing Cleveland Center
11:15AM 41.7625 -83.4950 93° East 503 579 37,000 300 Climbing Cleveland Center
11:16AM 41.7464 -83.3050 96° East 503 579 37,000  Level Cleveland Center
11:17AM 41.7256 -83.1178 98° East 503 579 37,000  Level Cleveland Center
11:18AM 41.7067 -82.9333 98° East 503 579 37,000  Level Cleveland Center
11:19AM 41.6875 -82.7408 98° East 508 585 37,000  Level Cleveland Center
11:20AM 41.6678 -82.5539 98° East 508 585 37,000  Level Cleveland Center
11:21AM 41.6500 -82.3700 97° East 503 579 37,000  Level Cleveland Center
11:22AM 41.6300 -82.1806 98° East 508 585 37,000  Level Cleveland Center
11:23AM 41.6072 -81.9939 99° East 508 585 37,000  Level Cleveland Center
11:24AM 41.5886 -81.8019 97° East 508 585 37,000  Level Cleveland Center
11:25AM 41.5717 -81.6322 98° East 508 585 37,000  Level Cleveland Center
11:26AM 41.5522 -81.4433 98° East 513 590 37,000  Level Cleveland Center
11:27AM 41.5244 -81.2597 101° East 513 590 37,000  Level Cleveland Center
11:28AM 41.4628 -81.0903 116° Southeast 503 579 37,000  Level Cleveland Center
11:29AM 41.3653 -80.9483 132° Southeast 497 572 37,000  Level Cleveland Center
11:30AM 41.2656 -80.8125 134° Southeast 504 580 37,000  Level Cleveland Center
11:31AM 41.1678 -80.6742 133° Southeast 504 580 37,000  Level Cleveland Center
11:32AM 41.0678 -80.5392 134° Southeast 510 587 37,000  Level Cleveland Center
11:33AM 40.9675 -80.4017 134° Southeast 510 587 37,000  Level Cleveland Center
11:34AM 40.8608 -80.2564 134° Southeast 510 587 37,000  Level Cleveland Center
11:35AM 40.7833 -80.1006 123° Southeast 504 580 37,000  Level Cleveland Center
11:36AM 40.7325 -79.9447 113° Southeast 507 583 37,000  Level Cleveland Center
11:37AM 40.6689 -79.7783 117° Southeast 507 583 37,000  Level Cleveland Center
11:38AM 40.6008 -79.5986 116° Southeast 507 583 37,000 -300 Level Cleveland Center
11:39AM 40.5553 -79.4217 109° East 507 583 36,400 -840 Descending Cleveland Center
11:40AM 40.5242 -79.2419 103° East 502 578 35,400 -1,020 Descending Cleveland Center
11:41AM 40.4969 -79.0594 101° East 502 578 34,400 -1,320 Descending Cleveland Center
11:42AM 40.4672 -78.8775 102° East 507 583 32,800 -1,620 Descending Cleveland Center
11:43AM 40.4372 -78.6981 102° East 507 583 31,200 -1,680 Descending Cleveland Center
11:44AM 40.4094 -78.5297 102° East 512 589 29,500 -1,680 Descending Cleveland Center
11:45AM 40.3767 -78.3428 103° East 517 595 27,900 -1,380 Descending Cleveland Center
11:48AM 40.3039 -77.8778 101° East 539 620 25,000 -900 Descending New York Center
11:49AM 40.2883 -77.6856 96° East 532 612 25,000 -480 Level New York Center
11:50AM 40.2661 -77.4903 98° East 532 612 24,100 -1,680 Descending New York Center
11:51AM 40.2433 -77.3031 99° East 525 604 21,600 -3,000 Descending New York Center
11:52AM 40.2217 -77.1242 99° East 512 589 18,200 -2,340 Descending New York Center
11:53AM 40.2031 -76.9675 99° East 491 565 17,000 -600 Descending New York Center
11:54AM 40.1806 -76.7969 100° East 486 559 17,000 -240 Level New York Center
11:55AM 40.1600 -76.6242 99° East 481 554 16,600 -720 Descending New York Center
11:56AM 40.1411 -76.4569 98° East 471 542 15,600 -1,380 Descending New York Center
11:57AM 40.1206 -76.2758 98° East 466 536 13,900 -1,440 Descending New York Center
11:58AM 40.1081 -76.1364 97° East 419 482 12,800 -1,500 Descending New York Center
11:59AM 40.1006 -76.0275 95° East 356 410 10,900 -1,920 Descending New York Center
12:00PM 40.0897 -75.8936 96° East 333 383 9,000 -1,500 Descending New York Center
12:01PM 40.0344 -75.8217 135° Southeast 297 342 7,900 -960 Descending New York Center
12:02PM 39.9667 -75.7544 143° Southeast 297 342 7,100 -960 Descending New York Center
12:03PM 39.9122 -75.7047 145° Southeast 272 313 6,100 -1,140 Descending New York Center
12:04PM 39.8500 -75.6489 145° Southeast 260 299 4,900 -1,080 Descending New York Center
12:05PM 39.8236 -75.5794 116° Southeast 242 278 4,000 -900 Descending New York Center